createdAt,value
2022-08-05T00:00:52.861Z,0.00
2022-08-05T00:01:52.921Z,0.00
2022-08-05T00:02:52.870Z,0.00
2022-08-05T00:03:52.821Z,0.00
2022-08-05T00:04:55.872Z,0.00
2022-08-05T00:06:04.801Z,0.00
2022-08-05T00:06:53.793Z,0.00
2022-08-05T00:08:01.041Z,0.00
2022-08-05T00:08:52.951Z,0.00
2022-08-05T00:09:52.771Z,0.00
2022-08-05T00:10:52.819Z,0.00
2022-08-05T00:11:55.644Z,0.00
2022-08-05T00:12:56.802Z,0.00
2022-08-05T00:13:53.742Z,0.00
2022-08-05T00:14:52.724Z,0.00
2022-08-05T00:15:56.021Z,0.00
2022-08-05T00:16:54.025Z,0.00
2022-08-05T00:17:52.705Z,0.00
2022-08-05T00:18:52.695Z,0.00
2022-08-05T00:20:01.863Z,0.00
2022-08-05T00:20:53.705Z,0.00
2022-08-05T00:21:54.018Z,0.00
2022-08-05T00:22:57.476Z,0.00
2022-08-05T00:24:05.048Z,0.00
2022-08-05T00:24:55.048Z,0.00
2022-08-05T00:25:52.644Z,0.00
2022-08-05T00:26:53.131Z,0.00
2022-08-05T00:27:52.636Z,0.00
2022-08-05T00:28:52.631Z,0.00
2022-08-05T00:29:52.622Z,0.00
2022-08-05T00:30:53.725Z,0.00
2022-08-05T00:32:10.576Z,0.00
2022-08-05T00:32:53.597Z,0.00
2022-08-05T00:34:53.219Z,0.00
2022-08-05T00:35:06.310Z,0.00
2022-08-05T00:36:16.581Z,0.00
2022-08-05T00:37:11.939Z,0.00
2022-08-05T00:37:54.066Z,0.00
2022-08-05T00:38:52.722Z,0.00
2022-08-05T00:39:57.829Z,0.00
2022-08-05T00:40:52.531Z,0.00
2022-08-05T00:41:55.534Z,0.00
2022-08-05T00:42:52.526Z,0.00
2022-08-05T00:43:52.512Z,0.00
2022-08-05T00:44:52.504Z,0.00
2022-08-05T00:45:52.501Z,0.00
2022-08-05T00:46:54.159Z,0.00
2022-08-05T00:47:57.385Z,0.00
2022-08-05T00:48:53.541Z,0.00
2022-08-05T00:49:52.466Z,0.00
2022-08-05T00:50:52.465Z,0.00
2022-08-05T00:51:52.475Z,0.00
2022-08-05T00:52:53.380Z,0.00
2022-08-05T00:54:02.792Z,0.00
2022-08-05T00:54:53.438Z,0.00
2022-08-05T00:55:52.425Z,0.00
2022-08-05T00:56:52.442Z,0.00
2022-08-05T00:57:55.344Z,0.00
2022-08-05T00:58:52.406Z,0.00
2022-08-05T00:59:52.406Z,0.00
2022-08-05T01:00:52.455Z,0.00
2022-08-05T01:01:52.478Z,0.00
2022-08-05T01:02:52.378Z,0.00
2022-08-05T01:03:52.369Z,0.00
2022-08-05T01:04:52.375Z,0.00
2022-08-05T01:05:54.578Z,0.00
2022-08-05T01:06:52.403Z,0.00
2022-08-05T01:07:52.342Z,0.00
2022-08-05T01:08:53.338Z,0.00
2022-08-05T01:09:55.681Z,0.00
2022-08-05T01:10:52.842Z,0.00
2022-08-05T01:11:52.335Z,0.00
2022-08-05T01:12:54.341Z,0.00
2022-08-05T01:13:58.216Z,0.00
2022-08-05T01:14:53.294Z,0.00
2022-08-05T01:15:52.311Z,0.00
2022-08-05T01:16:52.443Z,0.00
2022-08-05T01:17:53.696Z,0.00
2022-08-05T01:18:56.396Z,0.00
2022-08-05T01:20:02.124Z,0.00
2022-08-05T01:20:53.252Z,0.00
2022-08-05T01:21:52.243Z,0.00
2022-08-05T01:22:52.250Z,0.00
2022-08-05T01:23:53.023Z,0.00
2022-08-05T01:24:52.223Z,0.00
2022-08-05T01:25:53.632Z,0.00
2022-08-05T01:26:52.206Z,0.00
2022-08-05T01:27:55.862Z,0.00
2022-08-05T01:28:52.187Z,0.00
2022-08-05T01:29:52.189Z,0.00
2022-08-05T01:30:53.929Z,0.00
2022-08-05T01:31:52.181Z,0.00
2022-08-05T01:32:52.160Z,0.00
2022-08-05T01:33:53.775Z,0.00
2022-08-05T01:34:52.143Z,0.00
2022-08-05T01:35:53.521Z,0.00
2022-08-05T01:36:52.145Z,0.00
2022-08-05T01:37:52.122Z,0.00
2022-08-05T01:38:52.113Z,0.00
2022-08-05T01:39:52.226Z,0.00
2022-08-05T01:40:52.103Z,0.00
2022-08-05T01:41:52.114Z,0.00
2022-08-05T01:42:52.089Z,0.00
2022-08-05T01:43:52.074Z,0.00
2022-08-05T01:44:54.137Z,0.00
2022-08-05T01:45:56.284Z,0.00
2022-08-05T01:46:52.087Z,0.00
2022-08-05T01:47:54.431Z,0.00
2022-08-05T01:48:52.043Z,0.00
2022-08-05T01:50:01.628Z,0.00
2022-08-05T01:50:53.032Z,0.00
2022-08-05T01:51:52.084Z,0.00
2022-08-05T01:52:52.013Z,0.00
2022-08-05T01:53:57.327Z,0.00
2022-08-05T01:54:53.016Z,0.00
2022-08-05T01:55:51.993Z,0.00
2022-08-05T01:58:11.544Z,0.00
2022-08-05T01:58:13.576Z,0.00
2022-08-05T01:58:52.985Z,0.00
2022-08-05T01:59:51.956Z,0.00
2022-08-05T02:00:51.955Z,0.00
2022-08-05T02:01:52.005Z,0.00
2022-08-05T02:02:54.986Z,0.00
2022-08-05T02:03:51.932Z,0.00
2022-08-05T02:04:51.931Z,0.00
2022-08-05T02:05:53.489Z,0.00
2022-08-05T02:06:52.930Z,0.00
2022-08-05T02:07:59.797Z,0.00
2022-08-05T02:08:58.306Z,0.00
2022-08-05T02:09:52.884Z,0.00
2022-08-05T02:10:51.960Z,0.00
2022-08-05T02:11:52.580Z,0.00
2022-08-05T02:12:51.868Z,0.00
2022-08-05T02:13:53.595Z,0.00
2022-08-05T02:14:51.853Z,0.00
2022-08-05T02:15:51.842Z,0.00
2022-08-05T02:16:52.172Z,0.00
2022-08-05T02:18:31.653Z,0.00
2022-08-05T02:18:52.821Z,0.00
2022-08-05T02:19:51.808Z,0.00
2022-08-05T02:20:51.807Z,0.00
2022-08-05T02:21:51.805Z,0.00
2022-08-05T02:22:51.792Z,0.00
2022-08-05T02:23:51.780Z,0.00
2022-08-05T02:24:52.167Z,0.00
2022-08-05T02:25:51.769Z,0.00
2022-08-05T02:26:51.903Z,0.00
2022-08-05T02:27:59.080Z,0.00
2022-08-05T02:28:52.753Z,0.00
2022-08-05T02:29:59.978Z,0.00
2022-08-05T02:30:54.719Z,0.00
2022-08-05T02:31:51.741Z,0.00
2022-08-05T02:32:51.718Z,0.00
2022-08-05T02:33:57.235Z,0.00
2022-08-05T02:34:54.503Z,0.00
2022-08-05T02:35:56.331Z,0.00
2022-08-05T02:36:52.714Z,0.00
2022-08-05T02:37:54.103Z,0.00
2022-08-05T02:38:53.201Z,0.00
2022-08-05T02:39:51.849Z,0.00
2022-08-05T02:40:51.665Z,0.00
2022-08-05T02:42:00.953Z,0.00
2022-08-05T02:42:54.034Z,0.00
2022-08-05T02:44:02.263Z,0.00
2022-08-05T02:44:52.633Z,0.00
2022-08-05T02:45:53.931Z,0.00
2022-08-05T02:46:59.740Z,0.00
2022-08-05T02:48:11.402Z,0.00
2022-08-05T02:48:52.603Z,0.00
2022-08-05T02:49:51.594Z,0.00
2022-08-05T02:50:51.589Z,0.00
2022-08-05T02:52:04.119Z,0.00
2022-08-05T02:52:52.567Z,0.00
2022-08-05T02:53:54.694Z,0.00
2022-08-05T02:54:52.343Z,0.00
2022-08-05T02:55:54.486Z,0.00
2022-08-05T02:56:52.559Z,0.00
2022-08-05T02:58:10.101Z,0.00
2022-08-05T02:58:52.626Z,0.00
2022-08-05T02:59:52.051Z,0.00
2022-08-05T03:00:51.583Z,0.00
2022-08-05T03:01:51.606Z,0.00
2022-08-05T03:02:51.499Z,0.00
2022-08-05T03:04:02.907Z,0.00
2022-08-05T03:04:53.085Z,0.00
2022-08-05T03:06:55.220Z,0.00
2022-08-05T03:06:59.261Z,0.00
2022-08-05T03:08:04.440Z,0.00
2022-08-05T03:08:52.470Z,0.00
2022-08-05T03:09:51.929Z,0.00
2022-08-05T03:11:53.611Z,0.00
2022-08-05T03:11:55.383Z,0.00
2022-08-05T03:12:52.433Z,0.00
2022-08-05T03:14:03.260Z,0.00
2022-08-05T03:14:52.402Z,0.00
2022-08-05T03:15:51.859Z,0.00
2022-08-05T03:16:53.396Z,0.00
2022-08-05T03:17:54.091Z,0.00
2022-08-05T03:18:51.380Z,0.00
2022-08-05T03:19:51.379Z,0.00
2022-08-05T03:20:51.364Z,0.00
2022-08-05T03:21:51.369Z,0.00
2022-08-05T03:22:51.346Z,0.00
2022-08-05T03:23:51.348Z,0.00
2022-08-05T03:24:52.145Z,0.00
2022-08-05T03:26:04.971Z,0.00
2022-08-05T03:26:52.334Z,0.00
2022-08-05T03:27:59.108Z,0.00
2022-08-05T03:28:52.304Z,0.00
2022-08-05T03:30:06.957Z,0.00
2022-08-05T03:30:52.319Z,0.00
2022-08-05T03:31:56.691Z,0.00
2022-08-05T03:32:52.263Z,1.00
2022-08-05T03:33:53.164Z,1.00
2022-08-05T03:34:51.661Z,1.00
2022-08-05T03:35:51.734Z,1.00
2022-08-05T03:36:51.247Z,1.00
2022-08-05T03:37:51.226Z,2.00
2022-08-05T03:38:53.429Z,2.00
2022-08-05T03:39:59.487Z,3.00
2022-08-05T03:40:52.289Z,3.00
2022-08-05T03:41:52.659Z,3.00
2022-08-05T03:42:51.773Z,4.00
2022-08-05T03:44:08.699Z,6.00
2022-08-05T03:44:52.167Z,6.00
2022-08-05T03:45:57.546Z,5.00
2022-08-05T03:46:52.169Z,7.00
2022-08-05T03:47:51.153Z,8.00
2022-08-05T03:48:51.141Z,9.00
2022-08-05T03:49:52.463Z,11.00
2022-08-05T03:50:51.122Z,14.00
2022-08-05T03:52:50.256Z,17.00
2022-08-05T03:55:50.632Z,15.00
2022-08-05T03:55:53.476Z,20.00
2022-08-05T03:56:03.748Z,17.00
2022-08-05T03:56:11.536Z,15.00
2022-08-05T03:56:52.158Z,17.00
2022-08-05T03:57:51.077Z,23.00
2022-08-05T03:58:51.270Z,26.00
2022-08-05T03:59:54.666Z,27.00
2022-08-05T04:00:51.423Z,28.00
2022-08-05T04:01:51.180Z,33.00
2022-08-05T04:02:57.660Z,36.00
2022-08-05T04:04:10.407Z,41.00
2022-08-05T04:04:52.013Z,45.00
2022-08-05T04:05:51.010Z,47.00
2022-08-05T04:06:51.400Z,54.00
2022-08-05T04:07:57.730Z,53.00
2022-08-05T04:08:51.985Z,58.00
2022-08-05T04:09:53.227Z,59.00
2022-08-05T04:10:50.966Z,58.00
2022-08-05T04:11:52.729Z,57.00
2022-08-05T04:12:50.967Z,60.00
2022-08-05T04:13:53.545Z,60.00
2022-08-05T04:14:50.940Z,62.00
2022-08-05T04:16:03.036Z,67.00
2022-08-05T04:16:51.945Z,72.00
2022-08-05T04:17:56.151Z,86.00
2022-08-05T04:18:54.489Z,99.00
2022-08-05T04:19:54.475Z,112.00
2022-08-05T04:20:51.893Z,133.00
2022-08-05T04:22:09.352Z,158.00
2022-08-05T04:22:51.901Z,188.00
2022-08-05T04:24:05.057Z,225.00
2022-08-05T04:24:52.257Z,266.00
2022-08-05T04:26:00.243Z,301.00
2022-08-05T04:26:51.839Z,337.00
2022-08-05T04:27:57.258Z,360.00
2022-08-05T04:28:52.250Z,369.00
2022-08-05T04:29:50.821Z,368.00
2022-08-05T04:30:50.818Z,377.00
2022-08-05T04:31:50.801Z,386.00
2022-08-05T04:32:50.813Z,387.00
2022-08-05T04:34:18.259Z,374.00
2022-08-05T04:34:51.780Z,342.00
2022-08-05T04:36:15.738Z,296.00
2022-08-05T04:36:51.765Z,241.00
2022-08-05T04:38:00.887Z,198.00
2022-08-05T04:38:52.114Z,169.00
2022-08-05T04:39:52.951Z,144.00
2022-08-05T04:40:51.058Z,128.00
2022-08-05T04:41:51.245Z,112.00
2022-08-05T04:42:50.738Z,104.00
2022-08-05T04:43:52.147Z,97.00
2022-08-05T04:44:50.706Z,96.00
2022-08-05T04:45:55.591Z,95.00
2022-08-05T04:46:50.690Z,99.00
2022-08-05T04:47:50.785Z,106.00
2022-08-05T04:48:51.711Z,114.00
2022-08-05T04:50:02.839Z,120.00
2022-08-05T04:51:01.459Z,127.00
2022-08-05T04:52:00.282Z,125.00
2022-08-05T04:52:51.666Z,122.00
2022-08-05T04:53:50.643Z,114.00
2022-08-05T04:54:50.859Z,105.00
2022-08-05T04:56:33.487Z,99.00
2022-08-05T04:56:51.617Z,97.00
2022-08-05T04:57:51.539Z,99.00
2022-08-05T04:58:50.605Z,103.00
2022-08-05T04:59:50.600Z,108.00
2022-08-05T05:00:51.003Z,117.00
2022-08-05T05:02:35.389Z,138.00
2022-08-05T05:02:51.687Z,167.00
2022-08-05T05:03:50.572Z,193.00
2022-08-05T05:04:51.379Z,213.00
2022-08-05T05:06:35.950Z,211.00
2022-08-05T05:06:57.417Z,209.00
2022-08-05T05:07:56.052Z,201.00
2022-08-05T05:08:50.525Z,185.00
2022-08-05T05:09:50.516Z,165.00
2022-08-05T05:10:56.191Z,157.00
2022-08-05T05:11:53.202Z,145.00
2022-08-05T05:12:50.715Z,142.00
2022-08-05T05:13:50.490Z,149.00
2022-08-05T05:14:51.433Z,165.00
2022-08-05T05:15:54.380Z,182.00
2022-08-05T05:16:50.594Z,209.00
2022-08-05T05:17:55.679Z,230.00
2022-08-05T05:19:16.465Z,262.00
2022-08-05T05:19:51.448Z,306.00
2022-08-05T05:20:50.522Z,350.00
2022-08-05T05:21:50.438Z,381.00
2022-08-05T05:22:51.440Z,389.00
2022-08-05T05:24:04.035Z,382.00
2022-08-05T05:24:58.677Z,363.00
2022-08-05T05:25:51.398Z,322.00
2022-08-05T05:26:51.914Z,284.00
2022-08-05T05:27:53.935Z,249.00
2022-08-05T05:28:51.387Z,224.00
2022-08-05T05:30:04.284Z,206.00
2022-08-05T05:30:51.352Z,201.00
2022-08-05T05:31:50.352Z,200.00
2022-08-05T05:32:50.338Z,199.00
2022-08-05T05:34:01.962Z,196.00
2022-08-05T05:34:52.309Z,192.00
2022-08-05T05:35:50.336Z,187.00
2022-08-05T05:36:51.225Z,179.00
2022-08-05T05:38:00.229Z,173.00
2022-08-05T05:38:51.319Z,175.00
2022-08-05T05:39:50.378Z,175.00
2022-08-05T05:40:51.331Z,182.00
2022-08-05T05:41:54.300Z,193.00
2022-08-05T05:42:50.266Z,205.00
2022-08-05T05:43:58.482Z,218.00
2022-08-05T05:44:51.266Z,236.00
2022-08-05T05:45:50.252Z,258.00
2022-08-05T05:46:50.237Z,286.00
2022-08-05T05:48:06.094Z,330.00
2022-08-05T05:48:51.223Z,389.00
2022-08-05T05:49:52.521Z,449.00
2022-08-05T05:50:51.208Z,490.00
2022-08-05T05:51:50.753Z,514.00
2022-08-05T05:52:50.190Z,570.00
2022-08-05T05:53:57.446Z,666.00
2022-08-05T05:54:51.348Z,765.00
2022-08-05T05:55:52.196Z,844.00
2022-08-05T05:56:51.160Z,884.00
2022-08-05T05:57:52.962Z,900.00
2022-08-05T05:58:50.326Z,906.00
2022-08-05T05:59:50.142Z,905.00
2022-08-05T06:00:50.130Z,843.00
2022-08-05T06:01:57.129Z,789.00
2022-08-05T06:02:51.117Z,758.00
2022-08-05T06:04:01.198Z,753.00
2022-08-05T06:04:51.364Z,760.00
2022-08-05T06:05:54.180Z,759.00
2022-08-05T06:06:51.087Z,754.00
2022-08-05T06:08:01.098Z,732.00
2022-08-05T06:08:51.073Z,626.00
2022-08-05T06:10:03.441Z,613.00
2022-08-05T06:10:52.873Z,700.00
2022-08-05T06:12:01.321Z,783.00
2022-08-05T06:12:51.045Z,939.00
2022-08-05T06:13:50.200Z,1129.00
2022-08-05T06:14:50.036Z,1260.00
2022-08-05T06:16:31.066Z,1320.00
2022-08-05T06:16:51.010Z,1384.00
2022-08-05T06:17:50.337Z,1393.00
2022-08-05T06:18:49.996Z,1521.00
2022-08-05T06:19:57.093Z,1325.00
2022-08-05T06:20:49.980Z,1154.00
2022-08-05T06:21:50.044Z,1198.00
2022-08-05T06:22:49.961Z,1316.00
2022-08-05T06:23:49.975Z,1459.00
2022-08-05T06:24:49.961Z,1338.00
2022-08-05T06:26:13.007Z,1039.00
2022-08-05T06:26:52.303Z,944.00
2022-08-05T06:28:11.814Z,1017.00
2022-08-05T06:28:50.916Z,1180.00
2022-08-05T06:30:04.406Z,1347.00
2022-08-05T06:30:50.898Z,1403.00
2022-08-05T06:31:50.702Z,1430.00
2022-08-05T06:32:50.802Z,1631.00
2022-08-05T06:34:07.774Z,1832.00
2022-08-05T06:34:53.518Z,2140.00
2022-08-05T06:36:07.160Z,2233.00
2022-08-05T06:36:57.218Z,2284.00
2022-08-05T06:37:57.575Z,2209.00
2022-08-05T06:38:50.857Z,2192.00
2022-08-05T06:39:49.828Z,2424.00
2022-08-05T06:40:49.826Z,2864.00
2022-08-05T06:41:49.819Z,3077.00
2022-08-05T06:42:51.595Z,3267.00
2022-08-05T06:43:57.604Z,3385.00
2022-08-05T06:44:50.795Z,3586.00
2022-08-05T06:46:06.753Z,4479.00
2022-08-05T06:46:51.274Z,4956.00
2022-08-05T06:48:46.857Z,5674.00
2022-08-05T06:48:56.695Z,6490.00
2022-08-05T06:50:00.714Z,6411.00
2022-08-05T06:50:50.750Z,6396.00
2022-08-05T06:51:49.743Z,6424.00
2022-08-05T06:53:04.047Z,6252.00
2022-08-05T06:53:53.642Z,6244.00
2022-08-05T06:54:52.110Z,6122.00
2022-08-05T06:55:49.714Z,5328.00
2022-08-05T06:56:54.393Z,4713.00
2022-08-05T06:57:57.870Z,4327.00
2022-08-05T06:58:50.697Z,4952.00
2022-08-05T06:59:57.894Z,5296.00
2022-08-05T07:00:49.692Z,4949.00
2022-08-05T07:01:52.856Z,5024.00
2022-08-05T07:02:53.942Z,5203.00
2022-08-05T07:03:49.660Z,6396.00
2022-08-05T07:04:49.658Z,6796.00
2022-08-05T07:05:49.754Z,7179.00
2022-08-05T07:06:50.425Z,6521.00
2022-08-05T07:07:49.664Z,6520.00
2022-08-05T07:08:54.503Z,6449.00
2022-08-05T07:09:55.555Z,6885.00
2022-08-05T07:10:53.234Z,7109.00
2022-08-05T07:11:49.661Z,7444.00
2022-08-05T07:12:49.579Z,7166.00
2022-08-05T07:13:59.922Z,6290.00
2022-08-05T07:14:50.603Z,5487.00
2022-08-05T07:16:01.623Z,4724.00
2022-08-05T07:18:08.589Z,3875.00
2022-08-05T07:18:08.700Z,3466.00
2022-08-05T07:18:50.533Z,3493.00
2022-08-05T07:20:50.523Z,4362.00
2022-08-05T07:22:00.421Z,4727.00
2022-08-05T07:22:50.508Z,5158.00
2022-08-05T07:23:50.590Z,4465.00
2022-08-05T07:24:53.666Z,3974.00
2022-08-05T07:25:55.316Z,3742.00
2022-08-05T07:26:50.475Z,3980.00
2022-08-05T07:28:00.800Z,4326.00
2022-08-05T07:28:50.461Z,4511.00
2022-08-05T07:30:23.806Z,4995.00
2022-08-05T07:30:54.841Z,3481.00
2022-08-05T07:31:55.013Z,3344.00
2022-08-05T07:32:51.043Z,2878.00
2022-08-05T07:33:49.424Z,2520.00
2022-08-05T07:34:49.435Z,2303.00
2022-08-05T07:36:02.606Z,2292.00
2022-08-05T07:36:51.225Z,2520.00
2022-08-05T07:37:49.391Z,2982.00
2022-08-05T07:38:49.389Z,3608.00
2022-08-05T07:40:26.043Z,4394.00
2022-08-05T07:40:55.612Z,5023.00
2022-08-05T07:42:14.193Z,5771.00
2022-08-05T07:42:50.362Z,6545.00
2022-08-05T07:43:49.349Z,6968.00
2022-08-05T07:44:49.449Z,6618.00
2022-08-05T07:45:58.074Z,8070.00
2022-08-05T07:46:50.138Z,6750.00
2022-08-05T07:47:49.319Z,6259.00
2022-08-05T07:49:02.294Z,6021.00
2022-08-05T07:49:54.505Z,4942.00
2022-08-05T07:50:49.323Z,5046.00
2022-08-05T07:51:54.473Z,5255.00
2022-08-05T07:52:50.278Z,5563.00
2022-08-05T07:53:50.267Z,5965.00
2022-08-05T07:54:49.439Z,6077.00
2022-08-05T07:56:06.732Z,5504.00
2022-08-05T07:57:02.393Z,4568.00
2022-08-05T07:57:58.908Z,4384.00
2022-08-05T07:58:57.529Z,4627.00
2022-08-05T07:59:50.227Z,4748.00
2022-08-05T08:00:49.281Z,4277.00
2022-08-05T08:01:57.659Z,4088.00
2022-08-05T08:03:14.322Z,4555.00
2022-08-05T08:03:51.344Z,5437.00
2022-08-05T08:04:49.743Z,5862.00
2022-08-05T08:05:49.749Z,5659.00
2022-08-05T08:06:49.179Z,6104.00
2022-08-05T08:07:59.849Z,5877.00
2022-08-05T08:08:50.190Z,5861.00
2022-08-05T08:09:49.151Z,6377.00
2022-08-05T08:10:49.232Z,6819.00
2022-08-05T08:11:59.012Z,7132.00
2022-08-05T08:12:50.162Z,7355.00
2022-08-05T08:14:00.436Z,7778.00
2022-08-05T08:14:50.298Z,8335.00
2022-08-05T08:16:35.376Z,10211.00
2022-08-05T08:16:53.499Z,12044.00
2022-08-05T08:17:52.499Z,10898.00
2022-08-05T08:18:49.905Z,9846.00
2022-08-05T08:20:42.981Z,9454.00
2022-08-05T08:21:01.937Z,7889.00
2022-08-05T08:21:50.073Z,7809.00
2022-08-05T08:22:49.057Z,7406.00
2022-08-05T08:24:02.727Z,7351.00
2022-08-05T08:24:51.840Z,6706.00
2022-08-05T08:26:02.164Z,7103.00
2022-08-05T08:26:50.041Z,7689.00
2022-08-05T08:27:51.138Z,8484.00
2022-08-05T08:28:59.176Z,9290.00
2022-08-05T08:30:06.116Z,9786.00
2022-08-05T08:30:50.280Z,9625.00
2022-08-05T08:31:48.994Z,9629.00
2022-08-05T08:32:48.983Z,9947.00
2022-08-05T08:33:51.569Z,10961.00
2022-08-05T08:34:48.992Z,11426.00
2022-08-05T08:35:52.493Z,11654.00
2022-08-05T08:36:55.718Z,10836.00
2022-08-05T08:37:53.513Z,9840.00
2022-08-05T08:38:53.484Z,9287.00
2022-08-05T08:39:49.625Z,9768.00
2022-08-05T08:40:51.650Z,8744.00
2022-08-05T08:41:50.945Z,7629.00
2022-08-05T08:42:52.599Z,7794.00
2022-08-05T08:45:16.389Z,10769.00
2022-08-05T08:45:18.819Z,8863.00
2022-08-05T08:45:49.900Z,10246.00
2022-08-05T08:46:48.882Z,9670.00
2022-08-05T08:48:10.461Z,6949.00
2022-08-05T08:49:07.795Z,8085.00
2022-08-05T08:50:14.269Z,10613.00
2022-08-05T08:51:22.519Z,18749.00
2022-08-05T08:52:06.098Z,13001.00
2022-08-05T08:52:51.696Z,10253.00
2022-08-05T08:53:48.829Z,16141.00
2022-08-05T08:54:48.838Z,10192.00
2022-08-05T08:56:04.943Z,17420.00
2022-08-05T08:56:49.809Z,17905.00
2022-08-05T08:57:58.245Z,18134.00
2022-08-05T08:58:50.580Z,15252.00
2022-08-05T08:59:48.950Z,61983.00
2022-08-05T09:00:48.831Z,21664.00
2022-08-05T09:01:57.582Z,16121.00
2022-08-05T09:02:49.768Z,60918.00
2022-08-05T09:03:55.263Z,61341.00
2022-08-05T09:05:16.331Z,61681.00
2022-08-05T09:06:08.971Z,62155.00
2022-08-05T09:06:49.883Z,28329.00
2022-08-05T09:07:58.078Z,14282.00
2022-08-05T09:08:49.728Z,10845.00
2022-08-05T09:09:48.710Z,15537.00
2022-08-05T09:10:48.723Z,13931.00
2022-08-05T09:11:53.108Z,14172.00
2022-08-05T09:12:51.078Z,17246.00
2022-08-05T09:14:10.113Z,24848.00
2022-08-05T09:14:56.315Z,16424.00
2022-08-05T09:15:49.688Z,12189.00
2022-08-05T09:16:49.106Z,9884.00
2022-08-05T09:17:49.601Z,9952.00
2022-08-05T09:18:48.652Z,15266.00
2022-08-05T09:20:01.945Z,13064.00
2022-08-05T09:20:49.691Z,8443.00
2022-08-05T09:22:17.937Z,7448.00
2022-08-05T09:22:51.794Z,7569.00
2022-08-05T09:23:48.608Z,8604.00
2022-08-05T09:24:48.621Z,14040.00
2022-08-05T09:26:01.668Z,11462.00
2022-08-05T09:26:51.928Z,9942.00
2022-08-05T09:28:04.386Z,13091.00
2022-08-05T09:28:49.661Z,14128.00
2022-08-05T09:29:48.569Z,12998.00
2022-08-05T09:30:49.445Z,16366.00
2022-08-05T09:32:40.933Z,17694.00
2022-08-05T09:32:49.569Z,18103.00
2022-08-05T09:33:48.541Z,12146.00
2022-08-05T09:34:48.535Z,9450.00
2022-08-05T09:35:48.569Z,8782.00
2022-08-05T09:36:56.100Z,8814.00
2022-08-05T09:38:12.918Z,9580.00
2022-08-05T09:38:49.506Z,11237.00
2022-08-05T09:39:55.899Z,9674.00
2022-08-05T09:40:52.147Z,9972.00
2022-08-05T09:41:51.643Z,10316.00
2022-08-05T09:42:49.479Z,11054.00
2022-08-05T09:43:49.390Z,13524.00
2022-08-05T09:44:49.414Z,18283.00
2022-08-05T09:46:06.757Z,19454.00
2022-08-05T09:46:51.840Z,11206.00
2022-08-05T09:47:56.109Z,11230.00
2022-08-05T09:48:55.409Z,10876.00
2022-08-05T09:50:00.541Z,11268.00
2022-08-05T09:50:49.435Z,12338.00
2022-08-05T09:51:49.964Z,11092.00
2022-08-05T09:52:48.407Z,9928.00
2022-08-05T09:53:54.951Z,10027.00
2022-08-05T09:54:49.388Z,11345.00
2022-08-05T09:55:57.297Z,9562.00
2022-08-05T09:56:51.828Z,13390.00
2022-08-05T09:57:48.360Z,12793.00
2022-08-05T09:58:50.259Z,14007.00
2022-08-05T09:59:48.349Z,10681.00
2022-08-05T10:00:48.357Z,5440.00
2022-08-05T10:01:48.338Z,4898.00
2022-08-05T10:02:49.425Z,6292.00
2022-08-05T10:03:59.575Z,8144.00
2022-08-05T10:04:49.572Z,9770.00
2022-08-05T10:05:48.456Z,10308.00
2022-08-05T10:06:49.788Z,11700.00
2022-08-05T10:08:35.510Z,8801.00
2022-08-05T10:08:50.349Z,6210.00
2022-08-05T10:09:48.291Z,6549.00
2022-08-05T10:10:50.411Z,8805.00
2022-08-05T10:11:49.260Z,11696.00
2022-08-05T10:12:49.457Z,8132.00
2022-08-05T10:13:49.312Z,8290.00
2022-08-05T10:14:48.239Z,8941.00
2022-08-05T10:15:48.257Z,6664.00
2022-08-05T10:16:52.823Z,6788.00
2022-08-05T10:17:54.642Z,6300.00
2022-08-05T10:18:49.211Z,5247.00
2022-08-05T10:20:04.119Z,4757.00
2022-08-05T10:20:49.235Z,5001.00
2022-08-05T10:21:48.184Z,4725.00
2022-08-05T10:22:50.757Z,3732.00
2022-08-05T10:24:00.165Z,3334.00
2022-08-05T10:24:49.173Z,3639.00
2022-08-05T10:25:48.204Z,4044.00
2022-08-05T10:26:52.224Z,4274.00
2022-08-05T10:28:13.723Z,4410.00
2022-08-05T10:28:49.165Z,4498.00
2022-08-05T10:30:41.897Z,4499.00
2022-08-05T10:32:48.001Z,4644.00
2022-08-05T10:32:59.833Z,6366.00
2022-08-05T10:33:01.150Z,5200.00
2022-08-05T10:33:54.287Z,8533.00
2022-08-05T10:34:49.102Z,11200.00
2022-08-05T10:35:59.017Z,25917.00
2022-08-05T10:36:49.079Z,22290.00
2022-08-05T10:37:48.068Z,27630.00
2022-08-05T10:38:48.067Z,19753.00
2022-08-05T10:39:59.366Z,24974.00
2022-08-05T10:40:49.110Z,24683.00
2022-08-05T10:41:48.041Z,21659.00
2022-08-05T10:42:48.085Z,16240.00
2022-08-05T10:43:48.032Z,18645.00
2022-08-05T10:44:48.022Z,24208.00
2022-08-05T10:45:48.014Z,22107.00
2022-08-05T10:46:51.017Z,15575.00
2022-08-05T10:48:27.565Z,10887.00
2022-08-05T10:48:57.427Z,9882.00
2022-08-05T10:50:31.615Z,10087.00
2022-08-05T10:50:48.980Z,10493.00
2022-08-05T10:51:48.680Z,10351.00
2022-08-05T10:52:49.714Z,10016.00
2022-08-05T10:53:47.953Z,10280.00
2022-08-05T10:54:56.825Z,10837.00
2022-08-05T10:56:05.420Z,12676.00
2022-08-05T10:56:49.441Z,13788.00
2022-08-05T10:57:51.295Z,16135.00
2022-08-05T10:58:49.495Z,19060.00
2022-08-05T11:00:02.640Z,18378.00
2022-08-05T11:00:55.476Z,18059.00
2022-08-05T11:01:54.928Z,16381.00
2022-08-05T11:02:48.898Z,17326.00
2022-08-05T11:03:47.901Z,20273.00
2022-08-05T11:04:47.875Z,20014.00
2022-08-05T11:05:47.882Z,17996.00
2022-08-05T11:06:47.873Z,22105.00
2022-08-05T11:08:04.619Z,23053.00
2022-08-05T11:08:48.854Z,21883.00
2022-08-05T11:09:47.837Z,18068.00
2022-08-05T11:10:50.414Z,17164.00
2022-08-05T11:11:53.268Z,15630.00
2022-08-05T11:12:54.244Z,17803.00
2022-08-05T11:13:55.039Z,17536.00
2022-08-05T11:15:11.406Z,19109.00
2022-08-05T11:16:00.688Z,16446.00
2022-08-05T11:16:57.260Z,15961.00
2022-08-05T11:17:59.385Z,15660.00
2022-08-05T11:18:48.833Z,17333.00
2022-08-05T11:20:11.399Z,13638.00
2022-08-05T11:20:48.782Z,17759.00
2022-08-05T11:21:49.547Z,12560.00
2022-08-05T11:22:50.066Z,11116.00
2022-08-05T11:24:03.913Z,10953.00
2022-08-05T11:24:50.682Z,11851.00
2022-08-05T11:26:04.181Z,12838.00
2022-08-05T11:26:49.672Z,10813.00
2022-08-05T11:27:51.988Z,8693.00
2022-08-05T11:28:48.714Z,7867.00
2022-08-05T11:29:47.691Z,8564.00
2022-08-05T11:30:47.704Z,11670.00
2022-08-05T11:31:56.968Z,13364.00
2022-08-05T11:32:48.690Z,14295.00
2022-08-05T11:33:48.089Z,14364.00
2022-08-05T11:34:54.216Z,12818.00
2022-08-05T11:36:07.643Z,11510.00
2022-08-05T11:36:52.926Z,10712.00
2022-08-05T11:38:26.735Z,9819.00
2022-08-05T11:38:51.122Z,9558.00
2022-08-05T11:39:48.184Z,10055.00
2022-08-05T11:40:47.637Z,10059.00
2022-08-05T11:42:01.520Z,9890.00
2022-08-05T11:42:48.637Z,10455.00
2022-08-05T11:44:04.574Z,8058.00
2022-08-05T11:44:53.786Z,6565.00
2022-08-05T11:46:27.437Z,6042.00
2022-08-05T11:47:09.897Z,5743.00
2022-08-05T11:47:50.350Z,6004.00
2022-08-05T11:48:48.555Z,5781.00
2022-08-05T11:49:49.882Z,6216.00
2022-08-05T11:50:47.544Z,7524.00
2022-08-05T11:51:49.406Z,8854.00
2022-08-05T11:52:49.002Z,7828.00
2022-08-05T11:53:47.525Z,7059.00
2022-08-05T11:54:48.509Z,7115.00
2022-08-05T11:55:48.510Z,11433.00
2022-08-05T11:56:50.250Z,14147.00
2022-08-05T11:58:10.417Z,16422.00
2022-08-05T11:58:53.146Z,14798.00
2022-08-05T11:59:50.150Z,14275.00
2022-08-05T12:00:47.474Z,14343.00
2022-08-05T12:01:48.482Z,13994.00
2022-08-05T12:02:47.532Z,13845.00
2022-08-05T12:03:56.023Z,10809.00
2022-08-05T12:04:59.020Z,12898.00
2022-08-05T12:05:48.430Z,13538.00
2022-08-05T12:06:48.692Z,13064.00
2022-08-05T12:08:08.694Z,12229.00
2022-08-05T12:08:50.627Z,13417.00
2022-08-05T12:09:53.420Z,12197.00
2022-08-05T12:10:48.717Z,14361.00
2022-08-05T12:11:47.572Z,11954.00
2022-08-05T12:12:59.536Z,12960.00
2022-08-05T12:13:49.971Z,13210.00
2022-08-05T12:14:47.458Z,15176.00
2022-08-05T12:15:50.142Z,8343.00
2022-08-05T12:16:47.401Z,7220.00
2022-08-05T12:18:04.136Z,6839.00
2022-08-05T12:18:49.593Z,5674.00
2022-08-05T12:20:17.654Z,4709.00
2022-08-05T12:20:48.325Z,4090.00
2022-08-05T12:21:47.601Z,4122.00
2022-08-05T12:22:47.312Z,4131.00
2022-08-05T12:23:47.474Z,4080.00
2022-08-05T12:24:49.584Z,3494.00
2022-08-05T12:25:47.288Z,2870.00
2022-08-05T12:26:47.296Z,2578.00
2022-08-05T12:27:53.435Z,2715.00
2022-08-05T12:28:48.268Z,3042.00